createdAt,value
2019-03-10T00:00:19.772Z,100961.59
2019-03-10T00:02:45.870Z,100946.88
2019-03-10T00:05:11.934Z,100939.09
2019-03-10T00:07:38.022Z,100930.84
2019-03-10T00:10:04.107Z,100939.87
2019-03-10T00:12:30.156Z,100931.13
2019-03-10T00:14:56.192Z,100933.06
2019-03-10T00:17:22.252Z,100932.36
2019-03-10T00:19:48.250Z,100916.67
2019-03-10T00:22:14.256Z,100922.59
2019-03-10T00:24:40.288Z,100906.04
2019-03-10T00:27:06.449Z,100898.25
2019-03-10T00:29:32.582Z,100897.55
2019-03-10T00:31:58.644Z,100890.14
2019-03-10T00:34:24.682Z,100883.67
2019-03-10T00:36:50.726Z,100889.23
2019-03-10T00:39:16.793Z,100890.71
2019-03-10T00:41:42.866Z,100894.17
2019-03-10T00:44:08.889Z,100885.90
2019-03-10T00:46:34.891Z,100883.42
2019-03-10T00:49:00.978Z,100879.10
2019-03-10T00:51:27.006Z,100869.05
2019-03-10T00:53:53.026Z,100859.61
2019-03-10T00:56:19.023Z,100853.02
2019-03-10T00:58:45.067Z,100866.20
2019-03-10T01:01:11.093Z,100863.69
2019-03-10T01:03:37.129Z,100853.31
2019-03-10T01:06:03.207Z,100861.34
2019-03-10T01:08:29.246Z,100863.28
2019-03-10T01:10:55.257Z,100859.48
2019-03-10T01:13:21.273Z,100853.72
2019-03-10T01:15:47.327Z,100854.67
2019-03-10T01:18:13.357Z,100846.56
2019-03-10T01:20:39.359Z,100838.65
2019-03-10T01:23:05.379Z,100839.51
2019-03-10T01:25:31.409Z,100830.20
2019-03-10T01:27:57.429Z,100827.56
2019-03-10T01:30:23.445Z,100821.11
2019-03-10T01:32:49.534Z,100819.78
2019-03-10T01:35:15.558Z,100801.83
2019-03-10T01:37:41.576Z,100797.54
2019-03-10T01:40:07.569Z,100787.49
2019-03-10T01:42:33.641Z,100774.44
2019-03-10T01:44:59.668Z,100761.39
2019-03-10T01:47:25.653Z,100748.38
2019-03-10T01:49:51.668Z,100746.07
2019-03-10T01:52:17.718Z,100729.92
2019-03-10T01:54:43.762Z,100727.75
2019-03-10T01:57:09.840Z,100721.33
2019-03-10T01:59:35.841Z,100712.10
2019-03-10T02:02:01.871Z,100702.52
2019-03-10T02:04:27.936Z,100691.64
2019-03-10T02:06:53.955Z,100692.95
2019-03-10T02:09:20.046Z,100677.64
2019-03-10T02:11:46.075Z,100668.22
2019-03-10T02:14:12.083Z,100666.90
2019-03-10T02:16:38.115Z,100647.14
2019-03-10T02:19:04.139Z,100641.87
2019-03-10T02:21:30.151Z,100630.96
2019-03-10T02:23:56.182Z,100626.68
2019-03-10T02:26:22.199Z,100626.68
2019-03-10T02:28:48.250Z,100624.05
2019-03-10T02:31:14.250Z,100611.00
2019-03-10T02:33:40.325Z,100609.69
2019-03-10T02:36:06.345Z,100606.72
2019-03-10T02:38:32.400Z,100601.09
2019-03-10T02:40:58.444Z,100590.22
2019-03-10T02:43:24.459Z,100581.82
2019-03-10T02:45:50.509Z,100568.31
2019-03-10T02:48:16.505Z,100561.73
2019-03-10T02:50:42.543Z,100548.69
2019-03-10T02:53:08.719Z,100539.96
2019-03-10T02:55:34.755Z,100533.05
2019-03-10T02:58:00.807Z,100524.28
2019-03-10T03:00:26.853Z,100531.37
2019-03-10T03:02:52.887Z,100526.09
2019-03-10T03:05:18.953Z,100517.70
2019-03-10T03:07:44.955Z,100506.02
2019-03-10T03:10:10.980Z,100498.57
2019-03-10T03:12:37.017Z,100493.66
2019-03-10T03:15:03.132Z,100487.70
2019-03-10T03:17:29.239Z,100484.58
2019-03-10T03:19:55.262Z,100469.76
2019-03-10T03:22:21.270Z,100465.31
2019-03-10T03:24:47.293Z,100470.25
2019-03-10T03:27:13.431Z,100465.45
2019-03-10T03:29:39.567Z,100466.44
2019-03-10T03:32:05.649Z,100459.52
2019-03-10T03:34:31.887Z,100453.06
2019-03-10T03:36:57.913Z,100448.30
2019-03-10T03:39:24.024Z,100433.45
2019-03-10T03:41:50.118Z,100432.63
2019-03-10T03:44:16.169Z,100434.44
2019-03-10T03:46:42.228Z,100423.58
2019-03-10T03:49:08.239Z,100409.72
2019-03-10T03:51:34.268Z,100400.63
2019-03-10T03:54:00.267Z,100392.23
2019-03-10T03:56:26.341Z,100385.33
2019-03-10T03:58:52.482Z,100382.69
2019-03-10T04:01:18.613Z,100377.75
2019-03-10T04:03:44.672Z,100366.39
2019-03-10T04:06:10.721Z,100358.49
2019-03-10T04:08:36.765Z,100348.45
2019-03-10T04:11:02.783Z,100342.69
2019-03-10T04:13:28.839Z,100340.88
2019-03-10T04:15:54.866Z,100328.70
2019-03-10T04:18:20.946Z,100320.44
2019-03-10T04:20:47.021Z,100310.89
2019-03-10T04:23:13.107Z,100315.17
2019-03-10T04:25:39.173Z,100306.95
2019-03-10T04:28:05.244Z,100300.86
2019-03-10T04:30:31.302Z,100292.60
2019-03-10T04:32:57.367Z,100288.65
2019-03-10T04:35:23.452Z,100277.30
2019-03-10T04:37:49.500Z,100269.39
2019-03-10T04:40:15.536Z,100265.94
2019-03-10T04:42:41.547Z,100261.17
2019-03-10T04:45:07.597Z,100251.95
2019-03-10T04:47:33.631Z,100242.38
2019-03-10T04:49:59.656Z,100229.21
2019-03-10T04:52:25.704Z,100225.08
2019-03-10T04:54:51.757Z,100221.48
2019-03-10T04:57:17.784Z,100217.03
2019-03-10T04:59:43.831Z,100208.00
2019-03-10T05:02:09.848Z,100200.43
2019-03-10T05:04:35.873Z,100181.53
2019-03-10T05:07:01.913Z,100175.77
2019-03-10T05:09:27.958Z,100169.51
2019-03-10T05:11:54.017Z,100155.70
2019-03-10T05:14:20.129Z,100152.08
2019-03-10T05:16:46.186Z,100133.17
2019-03-10T05:19:12.238Z,100117.70
2019-03-10T05:21:41.474Z,100105.70
2019-03-10T05:24:07.497Z,100099.94
2019-03-10T05:26:33.540Z,100089.41
2019-03-10T05:28:59.576Z,100073.92
2019-03-10T05:31:25.632Z,100062.75
2019-03-10T05:33:51.688Z,100050.89
2019-03-10T05:36:17.724Z,100031.14
2019-03-10T05:38:43.766Z,100023.09
2019-03-10T05:41:09.809Z,100020.28
2019-03-10T05:43:35.862Z,99999.56
2019-03-10T05:46:01.961Z,99996.44
2019-03-10T05:48:27.996Z,99986.22
2019-03-10T05:50:54.071Z,99980.48
2019-03-10T05:53:20.195Z,99967.14
2019-03-10T05:55:46.247Z,99958.09
2019-03-10T05:58:12.286Z,99950.02
2019-03-10T06:00:42.496Z,99942.61
2019-03-10T06:03:06.193Z,99943.44
2019-03-10T06:05:32.188Z,99932.89
2019-03-10T06:07:58.247Z,99938.16
2019-03-10T06:10:24.264Z,99923.67
2019-03-10T06:12:50.316Z,99930.27
2019-03-10T06:15:16.376Z,99925.49
2019-03-10T06:17:42.480Z,99918.76
2019-03-10T06:20:08.489Z,99894.70
2019-03-10T06:22:34.533Z,99917.44
2019-03-10T06:25:00.585Z,99905.41
2019-03-10T06:27:26.599Z,99888.78
2019-03-10T06:29:52.713Z,99889.14
2019-03-10T06:32:18.757Z,99871.16
2019-03-10T06:34:44.826Z,99858.84
2019-03-10T06:37:10.914Z,99853.39
2019-03-10T06:39:36.975Z,99849.44
2019-03-10T06:42:03.010Z,99843.20
2019-03-10T06:44:29.075Z,99820.15
2019-03-10T06:46:55.149Z,99808.80
2019-03-10T06:49:21.160Z,99799.39
2019-03-10T06:51:47.214Z,99789.67
2019-03-10T06:54:13.249Z,99780.45
2019-03-10T06:56:39.295Z,99801.38
2019-03-10T06:59:05.319Z,99774.72
2019-03-10T07:01:31.387Z,99780.30
2019-03-10T07:03:57.452Z,99773.72
2019-03-10T07:06:23.474Z,99760.55
2019-03-10T07:08:49.544Z,99744.74
2019-03-10T07:11:15.569Z,99725.48
2019-03-10T07:13:41.672Z,99711.31
2019-03-10T07:16:07.719Z,99712.63
2019-03-10T07:18:33.782Z,99708.18
2019-03-10T07:20:59.893Z,99699.31
2019-03-10T07:23:25.983Z,99697.17
2019-03-10T07:25:52.026Z,99683.50
2019-03-10T07:28:18.057Z,99680.37
2019-03-10T07:30:44.110Z,99673.28
2019-03-10T07:33:10.161Z,99670.33
2019-03-10T07:35:36.205Z,99667.20
2019-03-10T07:38:02.294Z,99655.84
2019-03-10T07:40:28.450Z,99648.59
2019-03-10T07:42:54.502Z,99657.82
2019-03-10T07:45:20.570Z,99666.04
2019-03-10T07:47:46.764Z,99668.17
2019-03-10T07:50:12.843Z,99668.17
2019-03-10T07:52:38.908Z,99656.00
2019-03-10T07:55:04.977Z,99661.12
2019-03-10T07:57:31.044Z,99646.28
2019-03-10T07:59:57.119Z,99640.04
2019-03-10T08:02:23.225Z,99643.80
2019-03-10T08:04:49.263Z,99638.03
2019-03-10T08:07:15.325Z,99637.56
2019-03-10T08:09:41.449Z,99640.52
2019-03-10T08:12:07.567Z,99638.38
2019-03-10T08:14:33.754Z,99629.16
2019-03-10T08:16:59.836Z,99635.75
2019-03-10T08:19:25.875Z,99637.38
2019-03-10T08:21:51.987Z,99632.92
2019-03-10T08:24:18.056Z,99618.63
2019-03-10T08:26:44.147Z,99614.48
2019-03-10T08:29:10.211Z,99597.05
2019-03-10T08:31:36.308Z,99589.95
2019-03-10T08:34:02.608Z,99581.39
2019-03-10T08:36:28.772Z,99601.81
2019-03-10T08:38:55.020Z,99609.72
2019-03-10T08:41:21.172Z,99617.63
2019-03-10T08:43:47.344Z,99621.08
2019-03-10T08:46:13.565Z,99618.44
2019-03-10T08:48:39.657Z,99619.59
2019-03-10T08:51:05.825Z,99616.62
2019-03-10T08:53:31.961Z,99612.67
2019-03-10T08:55:58.179Z,99607.74
2019-03-10T08:58:24.376Z,99612.51
2019-03-10T09:00:50.528Z,99598.52
2019-03-10T09:03:16.670Z,99593.25
2019-03-10T09:05:42.856Z,99598.02
2019-03-10T09:08:09.057Z,99600.66
2019-03-10T09:10:35.211Z,99592.75
2019-03-10T09:13:01.438Z,99586.66
2019-03-10T09:15:27.494Z,99588.48
2019-03-10T09:17:53.572Z,99594.22
2019-03-10T09:20:19.684Z,99592.75
2019-03-10T09:22:45.931Z,99594.56
2019-03-10T09:25:12.084Z,99583.53
2019-03-10T09:27:38.216Z,99570.66
2019-03-10T09:30:04.266Z,99592.41
2019-03-10T09:32:30.306Z,99582.20
2019-03-10T09:34:56.346Z,99581.86
2019-03-10T09:37:22.530Z,99569.50
2019-03-10T09:39:48.593Z,99570.82
2019-03-10T09:42:14.710Z,99553.06
2019-03-10T09:44:40.770Z,99556.17
2019-03-10T09:47:06.827Z,99551.41
2019-03-10T09:49:32.932Z,99549.59
2019-03-10T09:51:59.051Z,99558.34
2019-03-10T09:54:25.325Z,99552.88
2019-03-10T09:56:51.436Z,99551.25
2019-03-10T09:59:17.533Z,99557.84
2019-03-10T10:01:43.624Z,99564.58
2019-03-10T10:04:09.669Z,99548.77
2019-03-10T10:06:35.747Z,99551.25
2019-03-10T10:09:01.856Z,99557.64
2019-03-10T10:11:27.880Z,99545.47
2019-03-10T10:13:53.954Z,99541.21
2019-03-10T10:16:20.114Z,99539.39
2019-03-10T10:18:46.278Z,99530.67
2019-03-10T10:21:12.414Z,99535.44
2019-03-10T10:23:38.491Z,99534.78
2019-03-10T10:26:04.532Z,99513.86
2019-03-10T10:28:30.595Z,99531.30
2019-03-10T10:30:56.661Z,99536.56
2019-03-10T10:33:22.722Z,99528.66
2019-03-10T10:35:48.833Z,99490.95
2019-03-10T10:38:18.434Z,99519.44
2019-03-10T10:40:42.755Z,99525.41
2019-03-10T10:43:08.948Z,99519.63
2019-03-10T10:45:34.986Z,99520.44
2019-03-10T10:48:01.057Z,99529.16
2019-03-10T10:50:27.177Z,99530.17
2019-03-10T10:52:53.290Z,99526.03
2019-03-10T10:55:19.455Z,99490.14
2019-03-10T10:57:45.584Z,99504.64
2019-03-10T11:00:11.761Z,99494.41
2019-03-10T11:02:37.902Z,99502.00
2019-03-10T11:05:03.971Z,99501.50
2019-03-10T11:07:30.419Z,99488.83
2019-03-10T11:09:56.503Z,99488.83
2019-03-10T11:12:22.558Z,99480.61
2019-03-10T11:14:48.625Z,99477.13
2019-03-10T11:17:14.768Z,99464.26
2019-03-10T11:19:40.868Z,99462.13
2019-03-10T11:22:06.953Z,99464.45
2019-03-10T11:24:32.994Z,99470.03
2019-03-10T11:26:59.176Z,99468.72
2019-03-10T11:29:25.268Z,99456.04
2019-03-10T11:31:51.415Z,99453.91
2019-03-10T11:34:17.506Z,99449.61
2019-03-10T11:36:43.546Z,99452.59
2019-03-10T11:39:09.581Z,99435.63
2019-03-10T11:41:36.722Z,99441.71
2019-03-10T11:44:02.791Z,99443.03
2019-03-10T11:46:28.896Z,99481.89
2019-03-10T11:48:54.937Z,99507.73
2019-03-10T11:51:20.958Z,99501.65
2019-03-10T11:53:47.066Z,99489.48
2019-03-10T11:56:13.121Z,99507.42
2019-03-10T11:58:47.501Z,99499.67
2019-03-10T12:01:13.953Z,99508.91
2019-03-10T12:03:40.116Z,99505.14
2019-03-10T12:11:11.342Z,99539.69
2019-03-10T12:13:44.887Z,99521.05
2019-03-10T12:16:11.609Z,99533.73
2019-03-10T12:21:15.299Z,99526.98
2019-03-10T12:23:42.084Z,99522.52
2019-03-10T12:26:09.750Z,99529.27
2019-03-10T12:28:36.100Z,99530.42
2019-03-10T12:31:04.129Z,99528.94
2019-03-10T12:33:31.517Z,99534.02
2019-03-10T12:35:57.909Z,99524.30
2019-03-10T12:38:27.244Z,99519.17
2019-03-10T12:43:24.832Z,99537.11
2019-03-10T12:45:51.000Z,99527.72
2019-03-10T12:48:17.163Z,99533.96
2019-03-10T12:50:44.073Z,99547.33
2019-03-10T12:53:10.177Z,99548.98
2019-03-10T12:55:36.403Z,99552.24
2019-03-10T12:58:02.538Z,99559.33
2019-03-10T13:00:28.620Z,99558.83
2019-03-10T13:02:54.620Z,99559.98
2019-03-10T13:05:20.666Z,99548.58
2019-03-10T13:07:47.681Z,99536.91
2019-03-10T13:10:13.752Z,99555.17
2019-03-10T13:12:39.760Z,99550.38
2019-03-10T13:15:06.665Z,99522.03
2019-03-10T13:17:32.718Z,99545.57
2019-03-10T13:19:58.757Z,99548.88
2019-03-10T13:22:24.754Z,99558.45
2019-03-10T13:24:50.747Z,99541.81
2019-03-10T13:27:16.753Z,99556.63
2019-03-10T13:29:42.817Z,99550.03
2019-03-10T13:32:08.850Z,99550.53
2019-03-10T13:34:34.930Z,99561.09
2019-03-10T13:37:01.049Z,99535.84
2019-03-10T13:39:27.033Z,99583.30
2019-03-10T13:41:53.055Z,99541.95
2019-03-10T13:44:19.151Z,99553.34
2019-03-10T13:46:45.194Z,99566.20
2019-03-10T13:49:11.257Z,99593.75
2019-03-10T13:51:37.414Z,99595.69
2019-03-10T13:54:03.423Z,99611.86
2019-03-10T13:56:30.222Z,99622.91
2019-03-10T13:58:56.603Z,99616.32
2019-03-10T14:01:22.864Z,99620.63
2019-03-10T14:03:49.094Z,99640.72
2019-03-10T14:06:15.201Z,99646.65
2019-03-10T14:08:41.234Z,99667.94
2019-03-10T14:11:09.324Z,99703.19
2019-03-10T14:13:35.486Z,99664.64
2019-03-10T14:16:01.501Z,99684.41
2019-03-10T14:18:27.500Z,99701.05
2019-03-10T14:20:53.517Z,99735.01
2019-03-10T14:23:19.538Z,99722.80
2019-03-10T14:25:45.579Z,99709.12
2019-03-10T14:28:11.771Z,99718.34
2019-03-10T14:30:39.578Z,99739.14
2019-03-10T14:33:05.647Z,99752.31
2019-03-10T14:35:31.708Z,99786.08
2019-03-10T14:37:57.702Z,99788.87
2019-03-10T14:40:23.714Z,99798.75
2019-03-10T14:42:49.710Z,99799.75
2019-03-10T14:45:15.732Z,99784.94
2019-03-10T14:47:41.721Z,99814.23
2019-03-10T14:50:07.724Z,99849.83
2019-03-10T14:52:33.736Z,99832.37
2019-03-10T14:54:59.775Z,99858.37
2019-03-10T14:57:25.832Z,99866.77
2019-03-10T14:59:51.835Z,99877.50
2019-03-10T15:02:17.860Z,99872.23
2019-03-10T15:04:43.862Z,99912.72
2019-03-10T15:07:09.867Z,99885.23
2019-03-10T15:09:36.795Z,99903.34
2019-03-10T15:12:02.902Z,99918.48
2019-03-10T15:14:28.909Z,99924.75
2019-03-10T15:17:01.638Z,99956.05
2019-03-10T15:19:22.645Z,99952.24
2019-03-10T15:21:48.670Z,99975.80
2019-03-10T15:24:14.668Z,99958.52
2019-03-10T15:26:45.689Z,100001.18
2019-03-10T15:29:08.420Z,99980.62
2019-03-10T15:31:34.516Z,99991.66
2019-03-10T15:34:00.618Z,100000.37
2019-03-10T15:36:26.662Z,100014.58
2019-03-10T15:38:52.668Z,100022.48
2019-03-10T15:41:18.720Z,100035.02
2019-03-10T15:43:44.724Z,100040.78
2019-03-10T15:46:10.748Z,100033.36
2019-03-10T15:48:36.731Z,100070.94
2019-03-10T15:51:02.745Z,100079.53
2019-03-10T15:53:28.850Z,100094.91
2019-03-10T15:55:54.905Z,100096.08
2019-03-10T15:58:20.909Z,100107.59
2019-03-10T16:00:46.888Z,100118.11
2019-03-10T16:03:12.872Z,100123.84
2019-03-10T16:05:38.880Z,100145.94
2019-03-10T16:08:04.911Z,100140.02
2019-03-10T16:10:30.905Z,100156.86
2019-03-10T16:12:56.909Z,100174.83
2019-03-10T16:15:22.896Z,100179.42
2019-03-10T16:17:48.929Z,100207.28
2019-03-10T16:20:14.974Z,100210.10
2019-03-10T16:22:40.982Z,100219.19
2019-03-10T16:25:06.973Z,100222.64
2019-03-10T16:27:33.015Z,100234.51
2019-03-10T16:29:59.020Z,100250.05
2019-03-10T16:32:25.062Z,100253.18
2019-03-10T16:34:51.094Z,100255.67
2019-03-10T16:37:17.169Z,100277.06
2019-03-10T16:39:43.174Z,100282.33
2019-03-10T16:42:09.159Z,100291.60
2019-03-10T16:44:35.166Z,100295.59
2019-03-10T16:47:01.161Z,100304.05
2019-03-10T16:49:27.193Z,100319.66
2019-03-10T16:51:53.257Z,100332.84
2019-03-10T16:54:19.236Z,100332.34
2019-03-10T16:56:45.270Z,100356.94
2019-03-10T16:59:11.345Z,100360.80
2019-03-10T17:01:37.346Z,100360.98
2019-03-10T17:04:03.348Z,100380.09
2019-03-10T17:06:29.334Z,100389.64
2019-03-10T17:08:55.350Z,100378.59
2019-03-10T17:11:21.434Z,100392.50
2019-03-10T17:13:47.445Z,100398.09
2019-03-10T17:16:13.457Z,100423.90
2019-03-10T17:18:39.449Z,100434.31
2019-03-10T17:21:05.425Z,100424.48
2019-03-10T17:23:31.428Z,100444.91
2019-03-10T17:25:57.426Z,100448.23
2019-03-10T17:28:23.411Z,100452.70
2019-03-10T17:30:49.471Z,100457.83
2019-03-10T17:33:15.461Z,100470.85
2019-03-10T17:35:41.468Z,100471.20
2019-03-10T17:38:07.518Z,100482.77
2019-03-10T17:40:33.491Z,100491.95
2019-03-10T17:42:59.495Z,100524.13
2019-03-10T17:45:25.505Z,100513.44
2019-03-10T17:47:51.516Z,100533.67
2019-03-10T17:50:17.544Z,100499.49
2019-03-10T17:52:43.618Z,100545.17
2019-03-10T17:55:09.634Z,100543.54
2019-03-10T17:57:35.709Z,100570.30
2019-03-10T18:00:01.709Z,100568.56
2019-03-10T18:02:27.760Z,100562.41
2019-03-10T18:04:53.747Z,100571.43
2019-03-10T18:07:19.847Z,100575.08
2019-03-10T18:09:45.886Z,100586.52
2019-03-10T18:12:11.904Z,100597.31
2019-03-10T18:14:37.891Z,100584.17
2019-03-10T18:17:03.915Z,100588.16
2019-03-10T18:19:29.899Z,100598.27
2019-03-10T18:21:55.903Z,100624.52
2019-03-10T18:24:21.908Z,100605.92
2019-03-10T18:26:47.980Z,100613.60
2019-03-10T18:29:13.990Z,100614.84
2019-03-10T18:31:40.030Z,100619.62
2019-03-10T18:34:06.071Z,100628.86
2019-03-10T18:36:32.079Z,100645.68
2019-03-10T18:38:58.101Z,100632.31
2019-03-10T18:41:24.147Z,100651.97
2019-03-10T18:43:50.157Z,100662.74
2019-03-10T18:46:16.144Z,100665.44
2019-03-10T18:48:42.221Z,100666.23
2019-03-10T18:51:08.216Z,100676.19
2019-03-10T18:53:34.283Z,100681.38
2019-03-10T18:56:00.274Z,100674.91
2019-03-10T18:58:26.259Z,100681.94
2019-03-10T19:00:52.268Z,100686.16
2019-03-10T19:03:18.268Z,100699.66
2019-03-10T19:05:44.275Z,100706.25
2019-03-10T19:08:10.280Z,100710.21
2019-03-10T19:10:36.290Z,100720.77
2019-03-10T19:13:02.391Z,100720.08
2019-03-10T19:15:28.391Z,100725.55
2019-03-10T19:17:54.433Z,100738.94
2019-03-10T19:20:20.465Z,100737.68
2019-03-10T19:22:46.454Z,100733.27
2019-03-10T19:25:14.674Z,100742.30
2019-03-10T19:27:40.756Z,100740.95
2019-03-10T19:30:06.813Z,100731.16
2019-03-10T19:32:32.835Z,100738.59
2019-03-10T19:34:58.842Z,100742.97
2019-03-10T19:37:24.834Z,100749.56
2019-03-10T19:39:50.833Z,100767.38
2019-03-10T19:42:16.827Z,100787.41
2019-03-10T19:44:42.859Z,100806.58
2019-03-10T19:47:08.930Z,100846.84
2019-03-10T19:49:34.918Z,100845.59
2019-03-10T19:52:00.944Z,100858.09
2019-03-10T19:54:26.963Z,100806.08
2019-03-10T19:56:53.031Z,100779.47
2019-03-10T19:59:19.038Z,100803.95
2019-03-10T20:01:45.058Z,100811.58
2019-03-10T20:04:11.080Z,100802.80
2019-03-10T20:06:37.071Z,100802.44
2019-03-10T20:09:03.203Z,100803.33
2019-03-10T20:11:29.248Z,100800.36
2019-03-10T20:13:55.255Z,100803.63
2019-03-10T20:16:21.258Z,100805.00
2019-03-10T20:18:47.294Z,100820.33
2019-03-10T20:21:13.301Z,100832.20
2019-03-10T20:23:39.309Z,100859.77
2019-03-10T20:26:05.304Z,100895.73
2019-03-10T20:28:31.319Z,100940.41
2019-03-10T20:30:57.324Z,100972.75
2019-03-10T20:33:23.354Z,100998.17
2019-03-10T20:35:49.357Z,100981.66
2019-03-10T20:38:15.383Z,100983.52
2019-03-10T20:40:41.393Z,100973.95
2019-03-10T20:43:07.393Z,100962.82
2019-03-10T20:45:33.419Z,100962.82
2019-03-10T20:47:59.475Z,100950.38
2019-03-10T20:50:25.503Z,100951.36
2019-03-10T20:52:51.512Z,100933.98
2019-03-10T20:55:17.682Z,100933.16
2019-03-10T20:57:43.679Z,100924.63
2019-03-10T21:00:09.696Z,100912.42
2019-03-10T21:02:35.684Z,100907.77
2019-03-10T21:05:01.696Z,100917.63
2019-03-10T21:07:27.737Z,100917.95
2019-03-10T21:09:53.763Z,100916.63
2019-03-10T21:12:19.834Z,100915.89
2019-03-10T21:14:45.826Z,100909.82
2019-03-10T21:17:11.842Z,100907.64
2019-03-10T21:19:37.845Z,100907.36
2019-03-10T21:22:03.907Z,100905.83
2019-03-10T21:24:29.937Z,100909.62
2019-03-10T21:26:55.983Z,100918.40
2019-03-10T21:29:21.995Z,100918.35
2019-03-10T21:31:48.035Z,100921.03
2019-03-10T21:34:14.019Z,100921.61
2019-03-10T21:36:40.017Z,100935.50
